Time;durP1;ratioP1;P1;durP2;ratioP2;P2;SDS_P1;SDS_P2;PMS_P1;PMS_P2;Temp;Humidity;BMP_temperature;BMP_pressure;BME280_temperature;BME280_humidity;BME280_pressure;Samples;Min_cycle;Max_cycle;Signal;HPM_P1;HPM_P2
2021/08/16 00:01:40;;;;;;;7.70;6.20;;;;;;;14.63;96.44;93207.84;1788080;77;21572;-86
2021/08/16 00:04:08;;;;;;;11.25;7.05;;;;;;;14.53;96.69;93210.97;1825540;77;21046;-85
2021/08/16 00:06:35;;;;;;;9.28;5.62;;;;;;;14.47;97.22;93213.23;1795300;77;21105;-85
2021/08/16 00:09:07;;;;;;;7.28;6.58;;;;;;;14.42;97.31;93209.64;1755151;79;21074;-84
2021/08/16 00:11:35;;;;;;;11.45;6.97;;;;;;;14.32;98.02;93193.63;1764018;79;21107;-86
2021/08/16 00:14:02;;;;;;;8.20;7.08;;;;;;;14.22;98.81;93205.58;1733694;80;21072;-86
2021/08/16 00:16:32;;;;;;;8.08;6.33;;;;;;;14.22;99.08;93205.58;1727429;81;21025;-85
2021/08/16 00:18:58;;;;;;;8.65;6.62;;;;;;;14.18;98.21;93199.39;1746918;81;21120;-85
2021/08/16 00:21:26;;;;;;;10.25;6.97;;;;;;;14.18;98.43;93195.29;1739739;80;21089;-85
2021/08/16 00:23:53;;;;;;;12.58;8.80;;;;;;;14.20;98.64;93197.02;1691674;83;21488;-85
2021/08/16 00:26:21;;;;;;;8.98;8.08;;;;;;;14.21;98.58;93202.66;1720110;81;21177;-84
2021/08/16 00:28:47;;;;;;;11.22;9.30;;;;;;;14.22;98.40;93194.64;1740930;80;21077;-85
2021/08/16 00:31:15;;;;;;;10.28;8.40;;;;;;;14.22;98.15;93191.91;1726296;80;21058;-85
2021/08/16 00:33:42;;;;;;;11.20;8.05;;;;;;;14.23;98.02;93190.11;1786175;78;21050;-86
2021/08/16 00:36:08;;;;;;;13.58;9.73;;;;;;;14.24;98.18;93191.64;1795401;78;21745;-85
2021/08/16 00:38:36;;;;;;;10.30;7.45;;;;;;;14.27;98.15;93203.70;1805618;78;21051;-84
2021/08/16 00:41:03;;;;;;;8.53;6.83;;;;;;;14.29;97.79;93195.26;1793075;79;20986;-85
2021/08/16 00:43:31;;;;;;;5.62;5.12;;;;;;;14.27;97.78;93190.80;1756862;79;21038;-84
2021/08/16 00:45:58;;;;;;;7.45;6.35;;;;;;;14.29;97.93;93203.47;1785597;79;21038;-84
2021/08/16 00:48:26;;;;;;;9.65;6.50;;;;;;;14.25;97.42;93196.51;1782071;79;21035;-84
2021/08/16 00:50:54;;;;;;;7.33;6.28;;;;;;;14.15;97.53;93195.56;1781581;79;21188;-84
2021/08/16 00:53:21;;;;;;;8.08;7.28;;;;;;;14.06;98.48;93189.88;1802163;79;21034;-84
2021/08/16 00:55:51;;;;;;;8.10;6.83;;;;;;;14.02;98.92;93185.84;1800007;79;21108;-84
2021/08/16 00:58:19;;;;;;;9.85;6.72;;;;;;;14.06;98.70;93184.41;1810091;77;21018;-84
2021/08/16 01:00:48;;;;;;;12.65;8.15;;;;;;;14.05;98.07;93183.64;1786931;77;21099;-84
2021/08/16 01:03:14;;;;;;;10.08;7.40;;;;;;;14.02;97.93;93178.25;1744431;79;21450;-83
2021/08/16 01:05:42;;;;;;;8.83;6.70;;;;;;;14.01;97.98;93179.45;1765905;79;21065;-83
2021/08/16 01:08:10;;;;;;;12.15;7.53;;;;;;;13.97;98.26;93181.48;1809667;77;20955;-85
2021/08/16 01:10:37;;;;;;;10.40;7.55;;;;;;;13.96;98.55;93183.45;1788160;78;21029;-84
2021/08/16 01:13:05;;;;;;;12.45;6.87;;;;;;;13.98;98.44;93182.42;1740123;80;21070;-84
2021/08/16 01:15:33;;;;;;;6.87;6.17;;;;;;;13.99;98.63;93181.25;1761126;80;21042;-85
2021/08/16 01:18:02;;;;;;;7.05;6.35;;;;;;;13.96;98.81;93182.69;1815461;77;21217;-84
2021/08/16 01:20:28;;;;;;;9.88;6.95;;;;;;;13.93;99.19;93184.89;1817742;77;20998;-85
2021/08/16 01:22:57;;;;;;;6.92;6.22;;;;;;;13.95;99.47;93185.22;1803885;77;21066;-86
2021/08/16 01:25:25;;;;;;;8.05;7.17;;;;;;;13.97;99.61;93178.75;1774182;79;21032;-85
2021/08/16 01:27:52;;;;;;;8.03;6.83;;;;;;;13.99;99.79;93177.72;1798227;78;21039;-85
2021/08/16 01:30:18;;;;;;;8.03;6.50;;;;;;;14.03;99.60;93166.91;1795585;77;21057;-85
2021/08/16 01:32:45;;;;;;;8.48;6.95;;;;;;;14.07;98.93;93165.47;1807648;77;21061;-85
2021/08/16 01:35:11;;;;;;;7.80;6.92;;;;;;;14.09;98.70;93162.46;1830785;77;21012;-85
2021/08/16 01:37:38;;;;;;;9.45;6.25;;;;;;;14.08;98.75;93165.03;1829303;77;21125;-85
2021/08/16 01:40:12;;;;;;;8.38;6.87;;;;;;;14.05;99.08;93159.03;1830738;77;21005;-86
2021/08/16 01:42:40;;;;;;;9.05;6.72;;;;;;;13.96;99.14;93149.28;1820208;77;21528;-85
2021/08/16 01:45:08;;;;;;;8.13;6.22;;;;;;;13.89;99.42;93145.93;1827345;77;20951;-85
2021/08/16 01:47:34;;;;;;;8.28;5.97;;;;;;;13.83;99.63;93145.04;1790990;78;21046;-83
2021/08/16 01:50:03;;;;;;;7.22;6.53;;;;;;;13.81;99.35;93137.11;1752896;78;21052;-84
2021/08/16 01:52:30;;;;;;;9.20;6.70;;;;;;;13.80;99.39;93136.91;1730919;80;22098;-84
2021/08/16 01:54:56;;;;;;;8.58;6.58;;;;;;;13.81;99.12;93135.74;1741341;80;21067;-83
2021/08/16 01:57:22;;;;;;;8.78;6.30;;;;;;;13.81;98.70;93131.05;1760750;80;21062;-84
2021/08/16 01:59:49;;;;;;;12.20;6.20;;;;;;;13.75;98.73;93120.42;1777450;78;21038;-84
2021/08/16 02:02:15;;;;;;;7.87;6.58;;;;;;;13.70;99.34;93116.83;1753772;80;21620;-85
2021/08/16 02:04:42;;;;;;;9.98;6.65;;;;;;;13.70;99.72;93116.06;1794121;78;21128;-84
2021/08/16 02:07:08;;;;;;;7.08;6.37;;;;;;;13.71;99.73;93110.77;1814931;77;21026;-85
2021/08/16 02:09:34;;;;;;;7.45;5.65;;;;;;;13.70;99.89;93114.70;1803754;77;21094;-84
2021/08/16 02:12:03;;;;;;;9.88;7.05;;;;;;;13.69;100.00;93109.84;1774925;77;20993;-84
2021/08/16 02:14:30;;;;;;;7.25;6.55;;;;;;;13.69;99.67;93119.40;1784202;78;21077;-84
2021/08/16 02:16:56;;;;;;;9.90;8.03;;;;;;;13.67;98.96;93125.10;1784800;78;21086;-85
2021/08/16 02:19:22;;;;;;;8.80;7.83;;;;;;;13.63;98.69;93124.41;1778467;79;21047;-85
2021/08/16 02:21:50;;;;;;;11.15;7.25;;;;;;;13.62;98.85;93123.64;1787394;79;21835;-84
2021/08/16 02:24:16;;;;;;;11.30;7.83;;;;;;;13.63;98.65;93128.50;1821503;77;21057;-83
2021/08/16 02:26:43;;;;;;;13.45;7.55;;;;;;;13.60;98.26;93124.64;1770281;78;21109;-83
2021/08/16 02:29:12;;;;;;;9.25;8.20;;;;;;;13.60;98.32;93121.91;1789361;79;21054;-84
2021/08/16 02:31:38;;;;;;;9.85;7.50;;;;;;;13.60;98.28;93123.28;1785238;78;21004;-83
2021/08/16 02:34:05;;;;;;;10.82;7.42;;;;;;;13.57;98.27;93127.61;1774503;79;21540;-83
2021/08/16 02:36:31;;;;;;;13.20;7.60;;;;;;;13.52;98.62;93135.54;1791329;79;21068;-84
2021/08/16 02:38:58;;;;;;;10.18;7.65;;;;;;;13.49;98.84;93127.58;1789422;79;21132;-84
2021/08/16 02:41:25;;;;;;;13.90;8.93;;;;;;;13.47;98.70;93128.61;1756647;79;21085;-83
2021/08/16 02:43:52;;;;;;;10.43;7.58;;;;;;;13.43;98.42;93126.55;1762926;79;21034;-83
2021/08/16 02:46:19;;;;;;;8.80;6.95;;;;;;;13.43;98.22;93129.88;1765169;80;21505;-83
2021/08/16 02:48:46;;;;;;;7.65;6.85;;;;;;;13.38;98.03;93122.16;1759964;80;21133;-83
2021/08/16 02:51:12;;;;;;;10.05;6.37;;;;;;;13.33;98.47;93124.78;1757851;80;21164;-83
2021/08/16 02:53:40;;;;;;;9.73;6.87;;;;;;;13.31;98.57;93123.05;1765578;80;20994;-83
2021/08/16 02:56:06;;;;;;;7.30;6.00;;;;;;;13.27;99.28;93119.03;1760364;79;21063;-84
2021/08/16 02:58:32;;;;;;;7.72;6.72;;;;;;;13.17;100.00;93117.26;1766419;80;21046;-83
2021/08/16 03:00:59;;;;;;;7.85;6.28;;;;;;;13.09;100.00;93113.13;1755891;80;21533;-81
2021/08/16 03:03:25;;;;;;;11.25;7.22;;;;;;;13.03;100.00;93121.61;1743040;81;21118;-83
2021/08/16 03:05:52;;;;;;;9.38;7.05;;;;;;;13.00;100.00;93115.61;1741959;80;21093;-82
2021/08/16 03:08:19;;;;;;;9.93;6.42;;;;;;;12.99;100.00;93115.44;1783659;79;21039;-83
2021/08/16 03:10:47;;;;;;;9.25;7.08;;;;;;;13.02;100.00;93110.52;1768055;79;21066;-84
2021/08/16 03:13:15;;;;;;;7.70;6.90;;;;;;;13.07;100.00;93110.03;1815602;77;21038;-84
2021/08/16 03:15:41;;;;;;;10.30;6.78;;;;;;;13.10;100.00;93105.87;1776426;78;21149;-84
2021/08/16 03:18:09;;;;;;;10.68;7.08;;;;;;;13.13;100.00;93113.23;1809297;77;21010;-84
2021/08/16 03:20:36;;;;;;;8.25;7.15;;;;;;;13.15;100.00;93101.88;1748956;80;21273;-85
2021/08/16 03:23:04;;;;;;;8.85;7.95;;;;;;;13.16;100.00;93101.28;1804440;78;21070;-85
2021/08/16 03:25:31;;;;;;;9.55;7.20;;;;;;;13.19;100.00;93111.37;1795867;77;21003;-84
2021/08/16 03:27:58;;;;;;;9.40;7.47;;;;;;;13.17;100.00;93109.07;1799751;78;21101;-84
2021/08/16 03:32:53;;;;;;;11.78;8.35;;;;;;;13.16;100.00;93118.42;1784229;79;21062;-83
2021/08/16 03:35:19;;;;;;;13.38;8.40;;;;;;;13.17;100.00;93112.39;1741641;79;21038;-84
2021/08/16 03:37:46;;;;;;;9.10;8.03;;;;;;;13.21;100.00;93113.09;1742669;80;20964;-84
2021/08/16 03:40:13;;;;;;;10.18;7.58;;;;;;;13.25;100.00;93102.31;1788954;77;21115;-83
2021/08/16 03:42:40;;;;;;;8.33;7.28;;;;;;;13.27;100.00;93098.55;1796821;77;21350;-83
2021/08/16 03:45:10;;;;;;;10.85;7.78;;;;;;;13.30;100.00;93094.22;1820333;77;21003;-85
2021/08/16 03:47:37;;;;;;;10.70;7.58;;;;;;;13.33;100.00;93092.78;1790460;77;21065;-83
2021/08/16 03:50:06;;;;;;;9.80;7.55;;;;;;;13.40;100.00;93098.70;1790115;78;21002;-85
2021/08/16 03:52:32;;;;;;;8.88;7.97;;;;;;;13.44;100.00;93087.72;1756326;79;21779;-85
2021/08/16 03:54:59;;;;;;;9.88;7.67;;;;;;;13.47;100.00;93086.88;1781767;78;21010;-84
2021/08/16 03:57:27;;;;;;;11.12;8.08;;;;;;;13.51;100.00;93073.91;1788123;79;21066;-84
2021/08/16 03:59:54;;;;;;;8.58;6.83;;;;;;;13.58;100.00;93084.70;1742982;79;21172;-85
2021/08/16 04:02:21;;;;;;;14.58;10.53;;;;;;;13.63;100.00;93071.13;1785051;79;21074;-85
2021/08/16 04:04:48;;;;;;;11.57;9.85;;;;;;;13.65;100.00;93064.03;1782195;79;21651;-85
2021/08/16 04:07:16;;;;;;;11.33;9.48;;;;;;;13.65;100.00;93064.63;1760491;80;21084;-84
2021/08/16 04:09:43;;;;;;;14.93;8.90;;;;;;;13.65;100.00;93059.94;1786390;79;21050;-83
2021/08/16 04:12:10;;;;;;;12.78;8.38;;;;;;;13.68;100.00;93063.80;1798154;79;20935;-84
2021/08/16 04:14:37;;;;;;;9.45;8.43;;;;;;;13.71;100.00;93066.45;1817529;77;21875;-84
2021/08/16 04:17:04;;;;;;;12.40;8.05;;;;;;;13.77;100.00;93070.84;1818716;77;21723;-85
2021/08/16 04:19:30;;;;;;;12.85;8.60;;;;;;;13.79;100.00;93070.56;1826319;77;21026;-85
2021/08/16 04:21:57;;;;;;;10.75;8.18;;;;;;;13.82;100.00;93068.95;1819064;77;21057;-84
2021/08/16 04:24:23;;;;;;;11.65;7.83;;;;;;;13.85;100.00;93079.81;1822208;77;21034;-85
2021/08/16 04:26:49;;;;;;;13.18;8.93;;;;;;;13.90;100.00;93087.34;1816068;77;21069;-83
2021/08/16 04:29:16;;;;;;;10.48;8.33;;;;;;;13.94;100.00;93092.12;1827528;77;21109;-83
2021/08/16 04:31:43;;;;;;;11.10;8.35;;;;;;;13.98;100.00;93095.55;1809644;77;21057;-83
2021/08/16 04:34:10;;;;;;;13.48;9.03;;;;;;;14.05;100.00;93093.42;1787349;77;21143;-84
2021/08/16 04:36:37;;;;;;;9.63;7.90;;;;;;;14.12;100.00;93093.87;1720637;81;21112;-85
2021/08/16 04:39:03;;;;;;;10.58;8.25;;;;;;;14.19;100.00;93098.41;1743605;80;21049;-87
2021/08/16 04:41:30;;;;;;;11.10;8.45;;;;;;;14.26;100.00;93117.39;1726970;79;21106;-84
2021/08/16 04:43:56;;;;;;;14.38;8.78;;;;;;;14.30;99.73;93114.75;1763350;79;21037;-85
2021/08/16 04:46:23;;;;;;;10.18;8.20;;;;;;;14.35;99.37;93116.20;1779896;78;21046;-84
2021/08/16 04:48:50;;;;;;;11.90;8.80;;;;;;;14.41;99.18;93126.81;1783502;77;21054;-85
2021/08/16 04:51:16;;;;;;;11.85;9.48;;;;;;;14.50;98.87;93136.58;1798489;77;21571;-85
2021/08/16 04:53:43;;;;;;;11.83;9.28;;;;;;;14.55;98.45;93148.98;1803330;78;22358;-87
2021/08/16 04:56:09;;;;;;;15.75;9.95;;;;;;;14.60;98.32;93159.43;1796845;77;21053;-84
2021/08/16 04:58:36;;;;;;;13.20;9.35;;;;;;;14.67;98.43;93162.58;1780100;79;21557;-86
2021/08/16 05:01:03;;;;;;;12.90;9.65;;;;;;;14.77;99.05;93143.77;1755563;80;21003;-85
2021/08/16 05:03:30;;;;;;;14.90;11.80;;;;;;;14.87;99.46;93159.17;1759504;80;21298;-87
2021/08/16 05:06:04;;;;;;;12.93;10.18;;;;;;;14.93;100.00;93156.67;1759674;80;21110;-86
2021/08/16 05:08:24;;;;;;;13.08;10.60;;;;;;;15.00;100.00;93151.02;1768489;79;21136;-85
2021/08/16 05:10:52;;;;;;;12.10;8.70;;;;;;;15.05;100.00;93148.55;1780899;79;21081;-85
2021/08/16 05:13:19;;;;;;;12.43;10.65;;;;;;;15.10;100.00;93158.81;1782301;78;21501;-86
2021/08/16 05:15:46;;;;;;;15.03;11.03;;;;;;;15.14;100.00;93167.70;1776595;79;21640;-86
2021/08/16 05:18:12;;;;;;;12.85;10.18;;;;;;;15.21;100.00;93177.11;1724227;80;22254;-86
2021/08/16 05:20:40;;;;;;;11.18;9.03;;;;;;;15.27;100.00;93177.53;1751383;78;21061;-85
2021/08/16 05:23:09;;;;;;;13.58;9.90;;;;;;;15.33;100.00;93181.88;1792807;77;21067;-86
2021/08/16 05:25:38;;;;;;;13.20;10.13;;;;;;;15.42;100.00;93203.17;1756995;79;21663;-85
2021/08/16 05:28:05;;;;;;;13.45;10.40;;;;;;;15.50;100.00;93223.73;1719458;80;21060;-86
2021/08/16 05:30:32;;;;;;;14.10;10.40;;;;;;;15.49;100.00;93191.42;1728130;81;21829;-84
2021/08/16 05:32:58;;;;;;;10.75;8.08;;;;;;;15.48;100.00;93196.74;1821569;77;21057;-85
2021/08/16 05:35:26;;;;;;;9.25;8.35;;;;;;;15.52;100.00;93190.56;1791995;77;21058;-85
2021/08/16 05:37:55;;;;;;;11.12;8.58;;;;;;;15.57;100.00;93189.30;1729430;78;21412;-86
2021/08/16 05:40:22;;;;;;;10.75;9.63;;;;;;;15.62;100.00;93175.05;1774784;78;21564;-85
2021/08/16 05:42:49;;;;;;;12.07;9.03;;;;;;;15.68;100.00;93169.25;1763779;79;21102;-86
2021/08/16 05:45:15;;;;;;;9.23;8.35;;;;;;;15.70;100.00;93171.55;1760879;78;21043;-85
2021/08/16 05:47:42;;;;;;;9.85;8.95;;;;;;;15.68;100.00;93166.52;1816026;77;21039;-85
2021/08/16 05:50:11;;;;;;;11.22;8.95;;;;;;;15.67;100.00;93159.47;1826028;77;21516;-86
2021/08/16 05:52:38;;;;;;;8.95;8.05;;;;;;;15.67;100.00;93169.67;1825479;77;21500;-87
2021/08/16 05:55:08;;;;;;;9.33;8.40;;;;;;;15.66;100.00;93184.58;1790557;78;21598;-87
2021/08/16 05:57:35;;;;;;;9.15;8.25;;;;;;;15.66;100.00;93199.05;1813004;77;21104;-87
2021/08/16 06:00:01;;;;;;;9.50;8.55;;;;;;;15.65;100.00;93224.93;1833387;76;21029;-85
2021/08/16 06:02:33;;;;;;;11.25;9.35;;;;;;;15.64;100.00;93254.09;1823084;77;21061;-85
2021/08/16 06:05:02;;;;;;;12.68;9.30;;;;;;;15.63;100.00;93260.78;1824688;75;21133;-86
2021/08/16 06:07:29;;;;;;;8.85;7.90;;;;;;;15.62;100.00;93250.42;1828320;76;21084;-86
2021/08/16 06:09:57;;;;;;;9.40;7.92;;;;;;;15.62;100.00;93255.91;1815529;77;21989;-85
2021/08/16 06:12:25;;;;;;;9.63;8.23;;;;;;;15.65;100.00;93248.23;1763087;77;21039;-86
2021/08/16 06:14:53;;;;;;;13.05;8.48;;;;;;;15.69;100.00;93239.31;1755260;79;21096;-88
2021/08/16 06:17:20;;;;;;;8.80;6.78;;;;;;;15.71;100.00;93230.03;1784216;77;21146;-85
2021/08/16 06:19:48;;;;;;;12.95;9.13;;;;;;;15.72;100.00;93229.43;1822659;77;21068;-88
2021/08/16 06:22:14;;;;;;;9.43;6.55;;;;;;;15.71;100.00;93251.96;1820659;77;21619;-84
2021/08/16 06:24:43;;;;;;;11.03;8.43;;;;;;;15.74;100.00;93253.08;1835855;75;21656;-84
2021/08/16 06:27:10;;;;;;;10.50;8.45;;;;;;;15.72;100.00;93256.27;1777387;76;21175;-85
2021/08/16 06:29:37;;;;;;;9.15;8.10;;;;;;;15.74;100.00;93241.52;1753558;80;21069;-87
2021/08/16 06:32:04;;;;;;;8.43;7.55;;;;;;;15.74;100.00;93224.30;1773859;77;21310;-84
2021/08/16 06:34:31;;;;;;;9.08;7.47;;;;;;;15.74;100.00;93208.62;1824681;77;21049;-86
2021/08/16 06:36:57;;;;;;;8.90;7.70;;;;;;;15.73;100.00;93183.02;1817324;77;21694;-84
2021/08/16 06:39:24;;;;;;;9.03;7.25;;;;;;;15.70;100.00;93168.81;1794247;78;22276;-83
2021/08/16 06:41:53;;;;;;;11.28;7.17;;;;;;;15.71;100.00;93169.73;1818501;77;21073;-87
2021/08/16 06:44:21;;;;;;;7.58;6.78;;;;;;;15.75;100.00;93171.77;1801300;77;21572;-87
2021/08/16 06:46:47;;;;;;;9.30;6.78;;;;;;;15.77;100.00;93154.30;1804224;77;21712;-86
2021/08/16 06:49:14;;;;;;;10.58;6.67;;;;;;;15.81;100.00;93161.66;1778070;78;21082;-85
2021/08/16 06:51:40;;;;;;;9.28;8.18;;;;;;;15.84;100.00;93151.20;1771499;77;21023;-86
2021/08/16 06:54:07;;;;;;;11.35;8.05;;;;;;;15.88;100.00;93160.09;1743160;79;21048;-87
2021/08/16 06:56:34;;;;;;;14.33;8.08;;;;;;;15.93;100.00;93160.31;1742808;79;21065;-89
2021/08/16 06:59:01;;;;;;;8.15;7.03;;;;;;;15.99;100.00;93172.30;1735693;79;21036;-89
2021/08/16 07:01:28;;;;;;;13.20;9.30;;;;;;;16.08;100.00;93198.31;1768794;78;21092;-86
2021/08/16 07:03:56;;;;;;;12.73;10.08;;;;;;;16.12;100.00;93187.39;1820247;77;21033;-86
2021/08/16 07:08:05;;;;;;;31.80;19.35;;;;;;;16.24;100.00;93188.63;1861254;75;23800;-87
2021/08/16 07:10:32;;;;;;;58.63;40.38;;;;;;;16.23;100.00;93169.26;1816251;77;21089;-88
2021/08/16 07:12:59;;;;;;;29.57;20.35;;;;;;;16.25;100.00;93149.03;1812369;77;21665;-85
2021/08/16 07:15:27;;;;;;;12.65;9.15;;;;;;;16.26;100.00;93161.53;1821441;77;21100;-87
2021/08/16 07:17:53;;;;;;;10.18;8.95;;;;;;;16.29;100.00;93163.41;1811532;77;21029;-89
2021/08/16 07:20:20;;;;;;;11.85;8.58;;;;;;;16.33;100.00;93157.20;1735268;80;21152;-87
2021/08/16 07:22:49;;;;;;;14.28;8.40;;;;;;;16.39;100.00;93171.14;1738362;80;21305;-86
2021/08/16 07:25:18;;;;;;;13.55;9.20;;;;;;;16.41;100.00;93186.58;1728965;80;21301;-85
2021/08/16 07:27:47;;;;;;;11.38;9.08;;;;;;;16.41;100.00;93179.11;1761156;79;21085;-90
2021/08/16 07:30:15;;;;;;;10.00;7.22;;;;;;;16.44;100.00;93177.47;1767160;79;21075;-87
2021/08/16 07:32:43;;;;;;;8.18;7.05;;;;;;;16.42;100.00;93180.64;1753681;78;22195;-88
2021/08/16 07:35:10;;;;;;;6.92;5.83;;;;;;;16.40;100.00;93165.84;1813837;77;21189;-86
2021/08/16 07:37:37;;;;;;;7.60;6.40;;;;;;;16.33;100.00;93143.49;1814996;77;21112;-87
2021/08/16 07:40:06;;;;;;;7.78;6.97;;;;;;;16.29;100.00;93126.37;1747345;78;21065;-88
2021/08/16 07:42:33;;;;;;;9.08;6.90;;;;;;;16.29;100.00;93130.48;1791279;78;21085;-86
2021/08/16 08:05:19;;;;;;;7.83;6.37;;;;;;;17.43;100.00;93106.80;1918597;72;23164;-86
2021/08/16 08:07:46;;;;;;;7.28;6.58;;;;;;;17.47;100.00;93114.31;1863097;74;21064;-84
2021/08/16 08:10:16;;;;;;;7.37;6.60;;;;;;;17.50;100.00;93121.67;1908188;73;21068;-88
2021/08/16 08:12:45;;;;;;;7.47;6.30;;;;;;;17.53;100.00;93126.28;1899936;74;21458;-83
2021/08/16 08:15:13;;;;;;;7.92;7.12;;;;;;;17.57;100.00;93119.28;1905275;73;21091;-87
2021/08/16 08:17:39;;;;;;;10.03;7.78;;;;;;;17.60;100.00;93110.13;1830568;74;21092;-85
2021/08/16 08:20:08;;;;;;;7.62;6.72;;;;;;;17.69;100.00;93108.22;1812560;77;21091;-87
2021/08/16 08:22:34;;;;;;;7.72;7.05;;;;;;;17.78;100.00;93103.41;1848412;74;21084;-87
2021/08/16 08:25:02;;;;;;;7.15;6.55;;;;;;;17.86;100.00;93108.03;1911792;74;21037;-85
2021/08/16 08:27:28;;;;;;;8.90;6.55;;;;;;;17.93;100.00;93093.41;1897725;74;21061;-86
2021/08/16 08:29:55;;;;;;;9.78;7.92;;;;;;;18.01;100.00;93099.42;1867410;74;21009;-87
2021/08/16 08:32:23;;;;;;;8.40;6.65;;;;;;;18.08;100.00;93093.65;1893863;74;21068;-85
2021/08/16 08:34:49;;;;;;;6.97;6.28;;;;;;;18.17;100.00;93088.82;1879249;73;21085;-87
2021/08/16 08:37:16;;;;;;;10.63;8.40;;;;;;;18.21;100.00;93072.94;1834267;75;21064;-84
2021/08/16 08:39:45;;;;;;;7.17;6.47;;;;;;;18.29;100.00;93066.55;1807034;77;21119;-87
2021/08/16 08:42:13;;;;;;;7.55;6.30;;;;;;;18.38;100.00;93061.83;1737291;79;21642;-86
2021/08/16 08:44:40;;;;;;;6.78;6.15;;;;;;;18.50;100.00;93064.92;1867753;74;20997;-87
2021/08/16 08:47:07;;;;;;;6.62;6.08;;;;;;;18.64;100.00;93056.09;1893599;74;21060;-84
2021/08/16 08:49:34;;;;;;;7.95;7.12;;;;;;;18.76;100.00;93060.73;1891582;74;21088;-87
2021/08/16 08:52:01;;;;;;;7.58;6.85;;;;;;;18.81;100.00;93062.91;1891609;74;21204;-84
2021/08/16 08:54:28;;;;;;;7.03;6.42;;;;;;;18.88;99.87;93059.86;1898127;74;21083;-86
2021/08/16 08:56:56;;;;;;;7.35;6.75;;;;;;;18.98;100.00;93055.73;1889792;74;21033;-84
2021/08/16 08:59:23;;;;;;;8.68;7.87;;;;;;;19.08;100.00;93055.91;1856777;74;21083;-84
2021/08/16 09:01:58;;;;;;;9.95;7.50;;;;;;;19.19;100.00;93055.45;1830545;75;21025;-83
2021/08/16 09:04:28;;;;;;;10.10;7.22;;;;;;;19.25;99.50;93056.36;1848323;75;21071;-84
2021/08/16 09:06:55;;;;;;;8.70;7.30;;;;;;;19.29;99.09;93054.22;1841767;75;21325;-85
2021/08/16 09:09:23;;;;;;;7.25;6.50;;;;;;;19.33;98.32;93050.10;1877763;73;21046;-84
2021/08/16 09:11:51;;;;;;;9.28;6.75;;;;;;;19.38;97.89;93054.98;1800772;74;21113;-84
2021/08/16 09:14:19;;;;;;;7.10;6.37;;;;;;;19.43;97.79;93058.36;1805356;76;21087;-84
2021/08/16 09:16:51;;;;;;;7.17;6.42;;;;;;;19.48;97.65;93054.36;1865404;74;21045;-85
2021/08/16 09:19:24;;;;;;;7.72;6.60;;;;;;;19.54;97.44;93055.90;1876746;75;21558;-86
2021/08/16 09:22:02;;;;;;;8.53;7.72;;;;;;;19.59;97.17;93056.03;1858609;74;21655;-86
2021/08/16 09:24:25;;;;;;;6.95;6.25;;;;;;;19.63;97.28;93059.45;1803095;76;21866;-83
2021/08/16 09:26:53;;;;;;;10.75;9.65;;;;;;;19.69;97.26;93054.69;1866921;74;21596;-83
2021/08/16 09:29:22;;;;;;;11.90;9.20;;;;;;;19.73;97.72;93051.91;1893564;74;21005;-84
2021/08/16 09:32:03;;;;;;;9.98;8.98;;;;;;;19.79;97.91;93047.94;1895838;74;21547;-85
2021/08/16 09:34:42;;;;;;;8.13;7.33;;;;;;;19.85;98.12;93046.06;1896039;74;21072;-87
2021/08/16 09:40:14;;;;;;;8.35;7.55;;;;;;;19.96;96.96;93031.78;1896757;74;21200;-85
2021/08/16 09:42:47;;;;;;;7.72;6.85;;;;;;;20.00;97.28;93030.38;1899220;73;21094;-86
2021/08/16 09:45:30;;;;;;;7.17;6.22;;;;;;;20.07;95.55;93032.06;1901259;74;21013;-85
2021/08/16 09:47:58;;;;;;;7.90;7.10;;;;;;;20.13;92.47;93026.83;1899089;74;21052;-83
2021/08/16 09:50:44;;;;;;;8.05;7.25;;;;;;;20.21;90.84;93025.12;1893555;74;21757;-84
2021/08/16 09:53:18;;;;;;;9.23;7.47;;;;;;;20.26;90.84;93028.61;1895661;74;21563;-86
2021/08/16 09:56:01;;;;;;;7.70;6.90;;;;;;;20.31;91.85;93023.23;1897485;74;21052;-82
2021/08/16 09:58:26;;;;;;;7.58;6.78;;;;;;;20.33;90.35;93032.42;1855696;75;21077;-84
2021/08/16 10:00:54;;;;;;;8.18;7.37;;;;;;;20.40;90.22;93018.90;1831696;74;21072;-85
2021/08/16 10:03:20;;;;;;;8.75;7.22;;;;;;;20.46;92.01;93028.84;1896969;74;21443;-85
2021/08/16 10:05:50;;;;;;;12.07;7.95;;;;;;;20.54;92.27;93021.77;1895933;74;21006;-85
2021/08/16 10:08:22;;;;;;;7.65;6.95;;;;;;;20.63;92.25;93021.57;1899417;74;21038;-85
2021/08/16 10:10:56;;;;;;;7.97;7.17;;;;;;;20.69;92.39;93021.09;1897628;74;21068;-87
2021/08/16 10:13:23;;;;;;;8.08;7.30;;;;;;;20.74;91.13;93018.43;1897727;74;21006;-87
2021/08/16 10:15:55;;;;;;;8.35;7.37;;;;;;;20.81;91.27;93022.84;1892042;74;21088;-85
2021/08/16 10:18:28;;;;;;;7.37;6.67;;;;;;;20.85;90.96;93017.28;1895378;74;21708;-85
2021/08/16 10:21:02;;;;;;;10.15;7.28;;;;;;;20.93;90.10;93009.41;1894664;74;21345;-86
2021/08/16 10:23:30;;;;;;;7.80;7.10;;;;;;;21.01;89.62;93020.24;1889125;74;21681;-86
2021/08/16 10:25:58;;;;;;;8.80;7.45;;;;;;;21.07;91.77;93009.31;1898610;74;21119;-85
2021/08/16 10:28:30;;;;;;;10.10;8.55;;;;;;;21.15;91.68;93001.42;1896122;74;21126;-85
2021/08/16 10:30:59;;;;;;;9.90;7.53;;;;;;;21.26;89.71;93011.31;1903059;74;21040;-86
2021/08/16 10:33:28;;;;;;;11.08;8.28;;;;;;;21.42;91.06;93002.59;1897412;74;20930;-85
2021/08/16 10:35:57;;;;;;;7.92;7.10;;;;;;;21.62;90.60;93003.32;1872603;74;21025;-84
2021/08/16 10:38:25;;;;;;;7.65;6.72;;;;;;;21.80;89.42;93001.75;1837708;74;21049;-84
2021/08/16 10:41:02;;;;;;;7.12;6.30;;;;;;;21.96;82.98;92997.73;1893905;74;21698;-83
2021/08/16 10:43:35;;;;;;;7.67;6.75;;;;;;;22.15;82.24;92992.78;1896425;74;21037;-87
2021/08/16 10:46:02;;;;;;;6.47;5.97;;;;;;;22.36;78.85;92989.46;1900593;74;21035;-86
2021/08/16 10:48:32;;;;;;;9.20;6.55;;;;;;;22.54;79.05;92982.30;1896881;74;21033;-83
2021/08/16 10:51:08;;;;;;;6.80;6.20;;;;;;;22.72;77.54;92981.29;1899162;74;21697;-83
2021/08/16 10:53:51;;;;;;;8.53;6.20;;;;;;;22.91;76.38;92981.02;1856183;75;21550;-84
2021/08/16 10:56:19;;;;;;;7.30;6.60;;;;;;;23.09;74.35;92973.81;1861596;75;21732;-84
2021/08/16 10:58:46;;;;;;;8.08;6.12;;;;;;;23.23;75.30;92968.81;1898326;74;21080;-83
2021/08/16 11:01:33;;;;;;;9.45;6.42;;;;;;;23.31;73.93;92964.98;1893561;74;21118;-85
2021/08/16 11:04:02;;;;;;;10.40;8.45;;;;;;;23.41;74.26;92962.20;1896896;74;21468;-84
2021/08/16 11:06:29;;;;;;;9.00;7.12;;;;;;;23.51;74.09;92956.64;1897121;74;21116;-85
2021/08/16 11:09:04;;;;;;;7.95;7.15;;;;;;;23.62;73.69;92954.61;1900375;74;21045;-83
2021/08/16 11:11:32;;;;;;;8.73;6.90;;;;;;;23.74;72.69;92959.66;1898090;74;21056;-86
2021/08/16 11:14:01;;;;;;;7.90;6.10;;;;;;;23.80;72.97;92951.37;1899664;74;21052;-84
2021/08/16 11:16:28;;;;;;;7.72;7.00;;;;;;;23.88;70.13;92951.84;1870596;74;21514;-84
2021/08/16 11:18:56;;;;;;;7.75;6.97;;;;;;;23.98;69.31;92942.69;1877048;74;21112;-86
2021/08/16 11:21:23;;;;;;;7.87;5.75;;;;;;;24.07;67.83;92952.84;1888219;74;20962;-87
2021/08/16 11:24:00;;;;;;;6.50;5.83;;;;;;;24.13;65.10;92949.50;1892898;74;21547;-84
2021/08/16 11:26:26;;;;;;;6.85;6.12;;;;;;;24.26;64.32;92947.08;1892566;74;21218;-86
2021/08/16 11:29:04;;;;;;;8.78;6.60;;;;;;;24.34;62.97;92956.47;1895006;74;22004;-87
2021/08/16 11:31:31;;;;;;;8.00;6.37;;;;;;;24.38;61.56;92952.83;1897750;74;21053;-86
2021/08/16 11:34:07;;;;;;;7.55;6.65;;;;;;;24.42;61.78;92953.39;1824727;76;21061;-88
2021/08/16 11:36:36;;;;;;;8.25;6.17;;;;;;;24.53;60.44;92956.11;1882191;74;21621;-87
2021/08/16 11:39:06;;;;;;;7.65;6.65;;;;;;;24.63;60.42;92951.86;1847108;74;21060;-86
2021/08/16 11:41:33;;;;;;;7.42;6.72;;;;;;;24.69;59.38;92956.20;1806842;77;21153;-87
2021/08/16 11:46:38;;;;;;;8.03;7.05;;;;;;;24.83;56.86;92953.12;1916910;73;21021;-87
2021/08/16 11:49:11;;;;;;;8.35;6.97;;;;;;;24.88;55.78;92956.55;1810443;72;21302;-85
2021/08/16 11:51:44;;;;;;;8.28;6.40;;;;;;;24.92;56.99;92951.50;1848601;74;21660;-85
2021/08/16 11:54:13;;;;;;;9.55;7.00;;;;;;;24.95;58.78;92967.20;1868531;74;21053;-85
2021/08/16 11:56:57;;;;;;;12.07;6.35;;;;;;;24.98;56.25;92959.88;1831249;75;21770;-86
2021/08/16 11:59:26;;;;;;;12.13;8.43;;;;;;;25.00;55.05;92952.42;1871870;73;21048;-84
2021/08/16 12:01:54;;;;;;;8.85;7.03;;;;;;;25.05;57.30;92963.59;1805709;76;21049;-86